Time;durP1;ratioP1;P1;durP2;ratioP2;P2;SDS_P1;SDS_P2;PMS_P1;PMS_P2;Temp;Humidity;BMP_temperature;BMP_pressure;BME280_temperature;BME280_humidity;BME280_pressure;Samples;Min_cycle;Max_cycle;Signal;HPM_P1;HPM_P2
2022/03/04 00:02:03;;;;;;;13.85;7.55;;;3.00;65.50;;;;;;6249061;28;20495;-79
2022/03/04 00:05:06;;;;;;;16.15;7.80;;;3.00;65.70;;;;;;6248351;28;20120;-78
2022/03/04 00:08:09;;;;;;;19.75;9.55;;;2.90;65.80;;;;;;6248013;28;20065;-79
2022/03/04 00:11:11;;;;;;;21.40;8.55;;;2.90;66.00;;;;;;6247925;28;20041;-78
2022/03/04 00:14:13;;;;;;;18.83;8.73;;;2.90;66.10;;;;;;6248875;28;20392;-79
2022/03/04 00:17:14;;;;;;;24.08;8.80;;;2.80;66.30;;;;;;6248533;28;20042;-80
2022/03/04 00:20:16;;;;;;;19.60;7.82;;;2.80;66.40;;;;;;6252365;28;20430;-80
2022/03/04 00:23:20;;;;;;;16.13;8.07;;;2.80;66.70;;;;;;6251793;28;20045;-78
2022/03/04 00:26:22;;;;;;;16.85;8.55;;;2.80;66.60;;;;;;6251459;28;20057;-79
2022/03/04 00:29:24;;;;;;;25.35;9.25;;;2.80;66.70;;;;;;6251517;28;20048;-80
2022/03/04 00:32:26;;;;;;;15.25;8.00;;;2.80;66.80;;;;;;6251519;28;20414;-79
2022/03/04 00:35:27;;;;;;;14.82;7.50;;;2.80;67.00;;;;;;6251569;28;20525;-80
2022/03/04 00:38:31;;;;;;;21.02;8.30;;;2.70;67.20;;;;;;6252071;28;20131;-78
2022/03/04 00:41:32;;;;;;;20.15;10.00;;;2.70;67.30;;;;;;6252428;28;20132;-80
2022/03/04 00:44:34;;;;;;;17.23;8.82;;;2.60;67.50;;;;;;6251615;28;20042;-79
2022/03/04 00:47:36;;;;;;;14.38;7.50;;;2.60;67.70;;;;;;6249350;28;20091;-80
2022/03/04 00:50:38;;;;;;;15.07;7.80;;;2.60;67.90;;;;;;6254052;28;20143;-79
2022/03/04 00:53:42;;;;;;;16.70;8.95;;;2.50;67.70;;;;;;6249262;28;20203;-76
2022/03/04 00:56:44;;;;;;;21.75;10.00;;;2.50;67.80;;;;;;6249379;28;20041;-79
2022/03/04 00:59:45;;;;;;;15.07;8.13;;;2.50;67.90;;;;;;6249190;28;20095;-79
2022/03/04 01:02:47;;;;;;;16.38;8.60;;;2.50;67.80;;;;;;6249174;28;20077;-78
2022/03/04 01:05:49;;;;;;;14.18;7.18;;;2.50;67.90;;;;;;6248166;28;20053;-77
2022/03/04 01:08:52;;;;;;;17.33;9.07;;;2.40;68.20;;;;;;6246811;28;20503;-78
2022/03/04 01:11:54;;;;;;;12.68;7.68;;;2.40;68.20;;;;;;6219979;28;20464;-79
2022/03/04 01:14:56;;;;;;;16.08;7.47;;;2.40;68.50;;;;;;6246200;28;20400;-79
2022/03/04 01:17:57;;;;;;;10.20;6.38;;;2.30;68.40;;;;;;6247185;28;20154;-78
2022/03/04 01:20:59;;;;;;;14.90;7.32;;;2.30;68.50;;;;;;6247570;28;20223;-78
2022/03/04 01:24:03;;;;;;;17.70;7.75;;;2.20;68.70;;;;;;6247294;28;20507;-78
2022/03/04 01:27:05;;;;;;;20.38;8.52;;;2.20;68.90;;;;;;6227332;28;20046;-78
2022/03/04 01:30:09;;;;;;;17.35;7.45;;;2.10;69.40;;;;;;6247642;28;20045;-79
2022/03/04 01:33:11;;;;;;;18.40;9.35;;;2.10;69.30;;;;;;6247094;28;20060;-79
2022/03/04 01:36:13;;;;;;;16.30;8.95;;;2.20;69.30;;;;;;6236152;28;20048;-79
2022/03/04 01:39:16;;;;;;;15.38;7.30;;;2.20;69.10;;;;;;6226829;28;20038;-79
2022/03/04 01:42:18;;;;;;;23.52;9.85;;;2.20;69.10;;;;;;6247465;28;20053;-78
2022/03/04 01:45:21;;;;;;;15.75;8.00;;;2.20;69.00;;;;;;6247135;28;20435;-79
2022/03/04 01:48:23;;;;;;;20.77;7.47;;;2.30;69.00;;;;;;6247001;28;20041;-78
2022/03/04 01:51:25;;;;;;;10.75;4.90;;;2.30;69.00;;;;;;6246583;28;20125;-79
2022/03/04 01:54:28;;;;;;;15.68;7.53;;;2.30;69.10;;;;;;6246597;28;20134;-79
2022/03/04 01:57:30;;;;;;;17.10;9.35;;;2.30;68.80;;;;;;6247490;28;20064;-79
2022/03/04 02:00:32;;;;;;;16.98;7.45;;;2.30;68.60;;;;;;6246996;28;20156;-78
2022/03/04 02:03:34;;;;;;;12.95;7.43;;;2.30;68.60;;;;;;6246970;28;20055;-79
2022/03/04 02:06:36;;;;;;;11.52;5.90;;;2.30;68.60;;;;;;6246658;28;20067;-79
2022/03/04 02:09:39;;;;;;;14.30;7.75;;;2.30;68.60;;;;;;6248767;28;20046;-79
2022/03/04 02:12:41;;;;;;;18.90;7.10;;;2.30;68.70;;;;;;6273368;22;20069;-83
2022/03/04 02:15:44;;;;;;;13.95;8.02;;;2.20;68.80;;;;;;6250370;28;20050;-80
2022/03/04 02:18:46;;;;;;;9.30;6.20;;;2.20;69.00;;;;;;6271333;28;20056;-81
2022/03/04 02:21:53;;;;;;;11.35;6.82;;;2.10;68.90;;;;;;6280136;28;20391;-82
2022/03/04 02:24:55;;;;;;;15.65;5.63;;;2.10;69.20;;;;;;6278949;28;20057;-80
2022/03/04 02:27:57;;;;;;;15.38;8.07;;;2.10;69.20;;;;;;6279369;28;20045;-81
2022/03/04 02:30:59;;;;;;;17.13;8.70;;;2.20;69.30;;;;;;6279562;28;20127;-81
2022/03/04 02:34:00;;;;;;;14.13;6.45;;;2.20;69.30;;;;;;6280216;28;20064;-83
2022/03/04 02:37:04;;;;;;;19.77;8.38;;;2.20;69.40;;;;;;6281270;28;20056;-81
2022/03/04 02:40:07;;;;;;;20.98;8.73;;;2.20;69.40;;;;;;6283453;28;20449;-82
2022/03/04 02:43:09;;;;;;;19.67;7.05;;;2.20;69.40;;;;;;6283216;28;20091;-82
2022/03/04 02:46:13;;;;;;;17.42;7.22;;;2.20;69.50;;;;;;6281012;28;20059;-82
2022/03/04 02:49:15;;;;;;;17.67;7.35;;;2.30;69.60;;;;;;6281590;28;20037;-82
2022/03/04 02:52:18;;;;;;;13.90;6.93;;;2.20;69.70;;;;;;6282480;28;20049;-83
2022/03/04 02:55:20;;;;;;;19.30;8.43;;;2.20;69.90;;;;;;6284302;28;20049;-84
2022/03/04 02:58:22;;;;;;;22.30;9.40;;;2.20;69.90;;;;;;6283966;28;20116;-82
2022/03/04 03:01:24;;;;;;;13.68;6.90;;;2.10;70.00;;;;;;6283814;28;20423;-83
2022/03/04 03:04:26;;;;;;;17.70;8.35;;;2.10;70.30;;;;;;6281925;28;20049;-84
2022/03/04 03:07:29;;;;;;;27.23;8.02;;;2.10;70.50;;;;;;6279725;28;20051;-82
2022/03/04 03:10:32;;;;;;;17.48;7.68;;;2.10;70.70;;;;;;6280471;28;20087;-81
2022/03/04 03:13:34;;;;;;;16.85;6.82;;;2.00;70.80;;;;;;6281282;28;20049;-83
2022/03/04 03:16:36;;;;;;;19.20;7.80;;;2.00;71.10;;;;;;6278472;28;20044;-83
2022/03/04 03:19:37;;;;;;;24.00;8.93;;;1.90;71.60;;;;;;6278674;28;20041;-81
2022/03/04 03:22:41;;;;;;;21.40;8.20;;;2.00;71.80;;;;;;6279495;28;20047;-81
2022/03/04 03:25:42;;;;;;;17.33;8.57;;;1.90;71.50;;;;;;6279562;28;20056;-81
2022/03/04 03:28:44;;;;;;;12.32;5.53;;;1.90;71.60;;;;;;6277871;28;20136;-83
2022/03/04 03:31:46;;;;;;;21.52;8.38;;;2.00;71.70;;;;;;6278738;28;20045;-82
2022/03/04 03:34:48;;;;;;;19.13;8.15;;;2.00;71.50;;;;;;6280483;28;20045;-82
2022/03/04 03:37:51;;;;;;;18.05;8.18;;;2.00;71.50;;;;;;6280173;28;20059;-82
2022/03/04 03:40:53;;;;;;;17.35;7.90;;;2.10;71.30;;;;;;6278777;28;20068;-84
2022/03/04 03:43:54;;;;;;;16.75;8.57;;;2.00;71.40;;;;;;6228675;28;20052;-81
2022/03/04 03:46:57;;;;;;;22.10;8.93;;;2.10;71.20;;;;;;6230759;28;20068;-82
2022/03/04 03:49:58;;;;;;;16.20;8.57;;;2.00;71.10;;;;;;6277738;28;20052;-83
2022/03/04 03:53:02;;;;;;;25.90;11.73;;;2.00;71.30;;;;;;6277799;28;20175;-83
2022/03/04 03:56:04;;;;;;;26.23;10.48;;;2.00;71.20;;;;;;6277856;28;20045;-83
2022/03/04 03:59:06;;;;;;;22.73;9.02;;;1.90;71.30;;;;;;6278304;28;20395;-82
2022/03/04 04:02:08;;;;;;;22.63;10.45;;;1.90;71.40;;;;;;6280153;28;20118;-82
2022/03/04 04:05:11;;;;;;;23.00;9.27;;;1.80;71.30;;;;;;6278235;28;20130;-81
2022/03/04 04:08:14;;;;;;;24.25;10.85;;;1.70;71.50;;;;;;6279829;28;20056;-82
2022/03/04 04:11:16;;;;;;;21.33;9.45;;;1.60;71.90;;;;;;6278473;28;20053;-82
2022/03/04 04:14:18;;;;;;;21.85;9.57;;;1.60;73.40;;;;;;6278951;28;20128;-81
2022/03/04 04:17:19;;;;;;;22.90;9.82;;;1.50;73.70;;;;;;6275441;28;20049;-81
2022/03/04 04:20:21;;;;;;;18.23;8.63;;;1.40;73.90;;;;;;6277880;28;20413;-81
2022/03/04 04:23:24;;;;;;;19.77;9.52;;;1.40;73.70;;;;;;6278640;28;20053;-81
2022/03/04 04:26:26;;;;;;;20.17;8.77;;;1.40;74.80;;;;;;6278983;28;20045;-81
2022/03/04 04:29:29;;;;;;;23.45;10.90;;;1.30;74.30;;;;;;6280645;28;20564;-81
2022/03/04 04:32:31;;;;;;;23.80;10.05;;;1.20;74.80;;;;;;6279784;28;20052;-82
2022/03/04 04:35:32;;;;;;;24.95;9.88;;;1.20;74.70;;;;;;6279214;28;20045;-81
2022/03/04 04:38:36;;;;;;;23.63;9.90;;;1.20;75.20;;;;;;6285548;28;20059;-81
2022/03/04 04:41:37;;;;;;;19.63;8.95;;;1.10;75.40;;;;;;6290006;28;20091;-82
2022/03/04 04:44:39;;;;;;;25.00;11.43;;;1.10;75.70;;;;;;6290945;28;20104;-83
2022/03/04 04:47:41;;;;;;;27.80;10.77;;;1.10;76.70;;;;;;6272913;28;20045;-84
2022/03/04 04:50:43;;;;;;;17.48;8.55;;;1.00;77.10;;;;;;6279555;28;20044;-81
2022/03/04 04:53:46;;;;;;;20.85;9.10;;;1.00;77.80;;;;;;6280234;28;20045;-81
2022/03/04 04:56:48;;;;;;;17.13;6.47;;;1.00;78.10;;;;;;6278017;28;20104;-81
2022/03/04 04:59:49;;;;;;;22.90;9.15;;;1.00;78.10;;;;;;6277990;28;20049;-81
2022/03/04 05:02:51;;;;;;;25.08;11.07;;;1.10;78.10;;;;;;6277239;28;20568;-82
2022/03/04 05:05:54;;;;;;;25.83;11.07;;;1.10;78.00;;;;;;6278916;28;20140;-81
2022/03/04 05:08:57;;;;;;;20.67;9.52;;;1.10;78.20;;;;;;6278224;28;20055;-81
2022/03/04 05:11:59;;;;;;;21.48;10.75;;;1.10;78.20;;;;;;6278227;28;20041;-81
2022/03/04 05:15:01;;;;;;;20.08;9.65;;;1.10;78.10;;;;;;6276968;28;20124;-81
2022/03/04 05:18:03;;;;;;;15.90;8.00;;;1.10;78.00;;;;;;6279143;28;20179;-81
2022/03/04 05:21:05;;;;;;;20.27;9.13;;;1.10;77.90;;;;;;6277795;28;20074;-82
2022/03/04 05:24:08;;;;;;;24.80;10.45;;;1.10;77.90;;;;;;6278771;28;20560;-83
2022/03/04 05:27:10;;;;;;;21.02;9.45;;;1.10;77.80;;;;;;6277671;28;20045;-81
2022/03/04 05:30:13;;;;;;;24.55;10.73;;;1.10;78.50;;;;;;6278124;28;20106;-81
2022/03/04 05:33:15;;;;;;;19.00;8.80;;;1.10;78.00;;;;;;6277774;28;20095;-82
2022/03/04 05:36:17;;;;;;;21.30;10.65;;;1.10;78.20;;;;;;6273530;28;20534;-80
2022/03/04 05:39:20;;;;;;;22.65;10.82;;;1.10;78.20;;;;;;6274244;28;20044;-81
2022/03/04 05:42:21;;;;;;;28.88;11.07;;;1.10;78.00;;;;;;6272504;28;20053;-81
2022/03/04 05:45:23;;;;;;;19.08;8.73;;;1.10;78.10;;;;;;6273174;28;20053;-80
2022/03/04 05:48:25;;;;;;;18.77;9.38;;;1.10;78.10;;;;;;6271928;28;20052;-82
2022/03/04 05:51:27;;;;;;;18.35;8.75;;;1.00;78.00;;;;;;6273640;28;20044;-79
2022/03/04 05:54:31;;;;;;;20.88;10.02;;;1.00;78.00;;;;;;6277074;28;20045;-83
2022/03/04 05:57:32;;;;;;;25.60;9.35;;;1.00;78.00;;;;;;6277076;28;20521;-80
2022/03/04 06:00:34;;;;;;;17.50;8.48;;;1.00;78.00;;;;;;6277015;28;20052;-81
2022/03/04 06:03:36;;;;;;;18.45;8.45;;;1.10;78.10;;;;;;6276654;28;20049;-80
2022/03/04 06:06:38;;;;;;;20.10;9.30;;;1.10;78.10;;;;;;6276492;28;20533;-81
2022/03/04 06:09:41;;;;;;;17.73;8.77;;;1.10;78.10;;;;;;6277318;28;20490;-81
2022/03/04 06:12:43;;;;;;;24.05;11.00;;;1.10;78.10;;;;;;6276675;28;20052;-80
2022/03/04 06:15:45;;;;;;;25.23;10.75;;;1.10;78.20;;;;;;6276666;28;20099;-81
2022/03/04 06:18:47;;;;;;;37.35;8.55;;;1.10;78.80;;;;;;6274240;28;20051;-82
2022/03/04 06:21:49;;;;;;;22.25;9.80;;;1.10;78.10;;;;;;6277848;28;20048;-80
2022/03/04 06:24:52;;;;;;;28.00;10.82;;;1.10;78.30;;;;;;6276841;28;20047;-82
2022/03/04 06:27:55;;;;;;;24.65;10.20;;;1.10;78.40;;;;;;6277537;28;20048;-80
2022/03/04 06:30:56;;;;;;;21.90;11.88;;;1.20;78.20;;;;;;6277298;28;20548;-80
2022/03/04 06:33:58;;;;;;;22.90;10.65;;;1.20;78.40;;;;;;6277190;28;20049;-80
2022/03/04 06:37:00;;;;;;;24.20;11.07;;;1.30;78.30;;;;;;6277399;28;20041;-82
2022/03/04 06:40:06;;;;;;;25.23;11.07;;;1.30;77.90;;;;;;6277550;28;20044;-80
2022/03/04 06:43:08;;;;;;;22.65;10.48;;;1.40;77.90;;;;;;6276864;28;20075;-80
2022/03/04 06:46:10;;;;;;;27.13;11.45;;;1.40;77.70;;;;;;6277600;28;20211;-81
2022/03/04 06:49:12;;;;;;;26.20;10.52;;;1.50;77.60;;;;;;6280240;28;20521;-82
2022/03/04 06:52:14;;;;;;;26.20;11.65;;;1.60;77.50;;;;;;6283282;28;20045;-82
2022/03/04 06:55:18;;;;;;;26.05;11.48;;;1.70;77.10;;;;;;6283813;28;20045;-82
2022/03/04 06:58:20;;;;;;;23.38;13.10;;;1.80;76.80;;;;;;6282185;28;20063;-81
2022/03/04 07:01:22;;;;;;;25.02;12.00;;;2.00;76.50;;;;;;6280653;28;20045;-81
2022/03/04 07:04:24;;;;;;;22.88;11.93;;;2.20;76.10;;;;;;6279496;28;20147;-84
2022/03/04 07:07:26;;;;;;;34.90;12.70;;;2.30;75.50;;;;;;6280217;28;20183;-82
2022/03/04 07:10:29;;;;;;;24.13;11.48;;;2.60;74.60;;;;;;6280412;28;20114;-81
2022/03/04 07:13:31;;;;;;;31.75;11.23;;;2.80;74.10;;;;;;6253968;28;20059;-81
2022/03/04 07:16:33;;;;;;;26.05;11.23;;;3.00;72.90;;;;;;6279080;28;20045;-81
2022/03/04 07:19:35;;;;;;;18.38;8.45;;;3.20;71.80;;;;;;6278892;28;20037;-81
2022/03/04 07:22:37;;;;;;;25.67;9.70;;;3.40;70.70;;;;;;6277890;28;20060;-82
2022/03/04 07:25:40;;;;;;;22.02;9.05;;;3.60;70.10;;;;;;6277605;28;20049;-80
2022/03/04 07:28:42;;;;;;;21.15;8.88;;;3.70;68.70;;;;;;6278247;28;20069;-81
2022/03/04 07:31:44;;;;;;;20.27;9.43;;;3.80;67.90;;;;;;6261058;28;20055;-81
2022/03/04 07:34:45;;;;;;;23.60;10.80;;;3.90;67.10;;;;;;6252609;28;20052;-81
2022/03/04 07:37:47;;;;;;;20.92;9.55;;;4.00;66.80;;;;;;6253058;28;20116;-82
2022/03/04 07:40:51;;;;;;;23.15;9.23;;;4.10;66.10;;;;;;6252638;28;20048;-81
2022/03/04 07:43:53;;;;;;;18.15;9.40;;;4.10;65.80;;;;;;6252287;28;20199;-81
2022/03/04 07:46:55;;;;;;;18.23;9.45;;;4.30;65.60;;;;;;6252437;28;20132;-81
2022/03/04 07:49:57;;;;;;;22.05;10.45;;;4.50;64.80;;;;;;6276541;28;20340;-80
2022/03/04 07:52:59;;;;;;;18.52;8.88;;;4.60;63.90;;;;;;6276600;28;20628;-81
2022/03/04 07:56:02;;;;;;;26.60;11.30;;;4.80;63.40;;;;;;6277416;28;20107;-81
2022/03/04 07:59:04;;;;;;;18.92;9.40;;;5.00;63.00;;;;;;6281285;28;20132;-82
2022/03/04 08:02:07;;;;;;;21.95;9.45;;;5.30;61.60;;;;;;6281472;28;20041;-81
2022/03/04 08:05:09;;;;;;;29.27;10.32;;;5.40;61.30;;;;;;6282057;28;20045;-82
2022/03/04 08:08:11;;;;;;;17.60;8.40;;;5.50;60.80;;;;;;6281806;28;20128;-82
2022/03/04 08:11:14;;;;;;;22.20;11.60;;;5.90;60.10;;;;;;6296960;23;20652;-79
2022/03/04 08:14:16;;;;;;;13.98;7.25;;;6.40;58.90;;;;;;6226969;28;20064;-79
2022/03/04 08:17:18;;;;;;;22.77;11.55;;;6.90;57.20;;;;;;6232625;28;20513;-78
2022/03/04 08:20:21;;;;;;;22.05;10.00;;;7.60;55.30;;;;;;6251918;28;20049;-79
2022/03/04 08:23:23;;;;;;;25.17;11.25;;;8.00;53.40;;;;;;6251442;28;20135;-80
2022/03/04 08:26:26;;;;;;;20.00;10.43;;;8.20;51.90;;;;;;6252084;28;20489;-78
2022/03/04 08:29:28;;;;;;;21.92;11.35;;;8.20;51.80;;;;;;6252808;28;20056;-80
2022/03/04 08:32:29;;;;;;;23.20;11.20;;;8.10;51.50;;;;;;6251732;28;20049;-80
2022/03/04 08:35:31;;;;;;;15.00;8.13;;;8.50;52.20;;;;;;6253266;28;20153;-79
2022/03/04 08:38:33;;;;;;;21.08;10.25;;;9.60;49.70;;;;;;6252719;28;20085;-79
2022/03/04 08:41:37;;;;;;;25.13;12.05;;;10.80;46.50;;;;;;6251304;28;20050;-79
2022/03/04 08:44:38;;;;;;;31.38;13.02;;;11.90;44.00;;;;;;6247705;28;20041;-77
2022/03/04 08:47:43;;;;;;;29.50;13.82;;;12.80;40.90;;;;;;6250605;28;20047;-78
2022/03/04 08:50:45;;;;;;;59.33;27.23;;;13.10;40.00;;;;;;6247953;28;20502;-78
2022/03/04 08:53:47;;;;;;;29.73;17.50;;;13.70;38.70;;;;;;6247754;28;20064;-77
2022/03/04 08:56:50;;;;;;;33.40;15.02;;;14.30;38.10;;;;;;6246774;28;20533;-78
2022/03/04 08:59:52;;;;;;;19.05;12.00;;;14.70;37.00;;;;;;6248847;28;20055;-81
2022/03/04 09:02:54;;;;;;;19.92;9.55;;;15.40;35.70;;;;;;6249077;28;20090;-79
2022/03/04 09:05:55;;;;;;;25.90;10.13;;;15.90;34.60;;;;;;6249066;28;20046;-78
2022/03/04 09:08:57;;;;;;;22.48;10.43;;;15.50;34.20;;;;;;6248486;28;20056;-79
2022/03/04 09:12:00;;;;;;;20.02;10.80;;;15.30;34.20;;;;;;6248107;28;20052;-78
2022/03/04 09:15:02;;;;;;;23.65;11.75;;;15.20;34.80;;;;;;6248275;28;20041;-79
2022/03/04 09:18:04;;;;;;;21.83;11.32;;;15.40;33.90;;;;;;6244969;28;20143;-78
2022/03/04 09:21:07;;;;;;;21.40;11.57;;;15.00;33.70;;;;;;6247105;28;20479;-78
2022/03/04 09:24:09;;;;;;;22.05;11.98;;;14.70;34.70;;;;;;6248815;28;20414;-79
2022/03/04 09:27:12;;;;;;;22.63;12.55;;;14.80;34.80;;;;;;6252940;28;20103;-78
2022/03/04 09:30:14;;;;;;;25.50;12.82;;;14.90;35.00;;;;;;6257374;28;20049;-79
2022/03/04 09:33:16;;;;;;;23.10;12.40;;;15.10;34.80;;;;;;6235300;28;20050;-78
2022/03/04 09:36:17;;;;;;;22.42;11.60;;;15.50;34.70;;;;;;6233741;28;20064;-79
2022/03/04 09:39:19;;;;;;;26.58;12.70;;;15.30;33.80;;;;;;6232634;28;20124;-79
2022/03/04 09:42:22;;;;;;;24.27;10.75;;;14.80;34.90;;;;;;6235832;28;20046;-80
2022/03/04 09:45:25;;;;;;;24.90;12.68;;;14.30;35.60;;;;;;6236079;28;20187;-79
2022/03/04 09:48:27;;;;;;;27.83;15.00;;;14.00;36.00;;;;;;6245088;28;20041;-78
2022/03/04 09:51:29;;;;;;;24.05;12.55;;;13.60;36.50;;;;;;6260169;28;20045;-78
2022/03/04 09:54:31;;;;;;;25.52;12.93;;;13.40;37.40;;;;;;6259064;28;20069;-78
2022/03/04 09:57:35;;;;;;;24.42;13.30;;;13.50;37.30;;;;;;6259814;28;20426;-79
2022/03/04 10:00:37;;;;;;;26.15;13.13;;;13.50;37.60;;;;;;6259480;28;20397;-80
2022/03/04 10:03:45;;;;;;;24.73;12.48;;;13.70;37.00;;;;;;6255267;28;20395;-78
2022/03/04 10:06:49;;;;;;;24.88;12.73;;;13.70;35.70;;;;;;6258713;28;20494;-79
2022/03/04 10:09:50;;;;;;;26.80;11.20;;;13.70;35.90;;;;;;6258098;28;20055;-82
2022/03/04 10:12:56;;;;;;;24.27;10.27;;;13.50;35.40;;;;;;6261393;28;20518;-80
2022/03/04 10:15:58;;;;;;;23.75;12.82;;;13.30;35.90;;;;;;6262560;28;20049;-78
2022/03/04 10:19:23;;;;;;;21.92;11.95;;;13.00;35.90;;;;;;6260450;28;20570;-79
2022/03/04 10:22:34;;;;;;;27.98;12.52;;;12.60;37.40;;;;;;6255951;28;20041;-80
2022/03/04 10:25:36;;;;;;;19.65;10.10;;;12.40;38.10;;;;;;6262388;28;20053;-79
2022/03/04 10:28:46;;;;;;;25.75;12.23;;;12.40;38.30;;;;;;6259909;28;20058;-79
2022/03/04 10:32:14;;;;;;;29.50;13.48;;;12.50;38.20;;;;;;6252381;28;20568;-80
2022/03/04 10:35:16;;;;;;;21.23;11.32;;;12.70;38.00;;;;;;6259743;28;20041;-80
2022/03/04 10:38:20;;;;;;;21.63;10.27;;;13.00;38.30;;;;;;6232796;28;20067;-79
2022/03/04 10:41:24;;;;;;;26.77;13.50;;;12.90;37.10;;;;;;6234216;28;20056;-80
2022/03/04 10:44:27;;;;;;;23.73;12.00;;;12.70;37.60;;;;;;6236060;28;20046;-80
2022/03/04 10:47:40;;;;;;;23.73;12.43;;;12.70;38.40;;;;;;6239526;28;20048;-80
2022/03/04 10:50:43;;;;;;;30.05;14.02;;;12.80;38.60;;;;;;6259388;28;20125;-77
2022/03/04 10:53:44;;;;;;;26.38;12.85;;;13.10;38.10;;;;;;6254990;28;20398;-79
2022/03/04 10:56:54;;;;;;;23.85;13.00;;;13.60;37.20;;;;;;6256280;28;20058;-79
2022/03/04 10:59:58;;;;;;;24.10;13.63;;;13.60;36.90;;;;;;6256852;28;20037;-80
2022/03/04 11:03:01;;;;;;;25.30;13.30;;;13.90;37.30;;;;;;6256661;28;20109;-79
2022/03/04 11:06:05;;;;;;;28.70;13.38;;;14.50;36.50;;;;;;6257605;28;20054;-79
2022/03/04 11:09:07;;;;;;;23.40;11.73;;;14.80;35.10;;;;;;6258781;28;20053;-80
2022/03/04 11:12:10;;;;;;;23.50;10.82;;;14.60;34.90;;;;;;6259151;28;20061;-79
2022/03/04 11:15:13;;;;;;;23.40;12.73;;;14.10;35.10;;;;;;6258966;28;20096;-80
2022/03/04 11:18:17;;;;;;;22.67;12.07;;;13.90;36.10;;;;;;6258072;28;20049;-79
2022/03/04 11:21:19;;;;;;;23.45;12.05;;;14.20;36.10;;;;;;6257176;28;20068;-80
2022/03/04 11:24:29;;;;;;;22.38;12.73;;;14.70;34.80;;;;;;6236540;28;20125;-80
2022/03/04 11:27:37;;;;;;;21.23;12.30;;;14.90;34.00;;;;;;6231065;28;20038;-82
2022/03/04 11:30:44;;;;;;;20.35;11.85;;;14.80;33.60;;;;;;6253374;28;20488;-79
2022/03/04 11:33:52;;;;;;;24.55;12.15;;;14.40;34.40;;;;;;6256048;28;20042;-79
2022/03/04 11:37:02;;;;;;;20.77;12.13;;;14.30;34.40;;;;;;6257039;28;20049;-78
2022/03/04 11:40:06;;;;;;;26.38;10.75;;;14.50;35.00;;;;;;6254520;28;20107;-78
2022/03/04 11:43:09;;;;;;;21.70;12.32;;;14.60;33.90;;;;;;6254395;28;20108;-80
2022/03/04 11:46:18;;;;;;;25.25;11.10;;;14.90;33.80;;;;;;6255793;28;20419;-79
2022/03/04 11:49:29;;;;;;;23.50;12.82;;;15.10;33.30;;;;;;6250910;28;20181;-79
2022/03/04 11:52:42;;;;;;;24.88;12.73;;;15.10;33.40;;;;;;6254951;28;20141;-80
2022/03/04 11:56:15;;;;;;;20.75;11.40;;;15.10;34.00;;;;;;6254553;28;20053;-79
2022/03/04 11:59:21;;;;;;;25.65;12.05;;;15.00;33.30;;;;;;6256029;28;20067;-80
2022/03/04 12:02:29;;;;;;;25.65;11.43;;;15.10;34.20;;;;;;6255119;28;20049;-80
2022/03/04 12:05:32;;;;;;;20.60;11.02;;;15.50;33.10;;;;;;6255572;28;20128;-80
2022/03/04 12:08:40;;;;;;;23.77;12.73;;;15.50;32.70;;;;;;6255769;28;20079;-80
2022/03/04 12:12:12;;;;;;;19.23;9.87;;;15.30;33.20;;;;;;6258962;28;20045;-79
2022/03/04 12:15:36;;;;;;;21.67;12.00;;;15.20;32.20;;;;;;6257025;28;20061;-81
2022/03/04 12:18:42;;;;;;;23.77;12.18;;;14.60;32.60;;;;;;6255191;28;20052;-79
2022/03/04 12:21:48;;;;;;;20.27;12.50;;;14.40;33.50;;;;;;6257997;28;20534;-79
2022/03/04 12:24:55;;;;;;;30.58;13.98;;;14.40;34.00;;;;;;6257280;28;20076;-79
2022/03/04 12:27:56;;;;;;;25.02;12.30;;;14.70;33.90;;;;;;6255653;28;20051;-80
2022/03/04 12:31:17;;;;;;;22.65;12.38;;;15.10;33.60;;;;;;6255961;28;20041;-80
2022/03/04 12:34:22;;;;;;;21.60;11.05;;;15.50;33.80;;;;;;6258267;28;20050;-80
2022/03/04 12:37:25;;;;;;;24.42;11.88;;;15.40;31.90;;;;;;6256699;28;20064;-80
2022/03/04 12:40:28;;;;;;;20.83;11.52;;;15.30;33.00;;;;;;6254470;28;20074;-79
2022/03/04 12:43:30;;;;;;;25.23;11.65;;;15.20;32.70;;;;;;6254157;28;20132;-80
2022/03/04 12:46:34;;;;;;;23.27;11.57;;;15.10;32.90;;;;;;6252831;28;20534;-79
2022/03/04 12:49:43;;;;;;;23.50;12.85;;;14.90;32.80;;;;;;6255168;28;20562;-81
2022/03/04 12:52:45;;;;;;;23.02;12.00;;;15.10;32.30;;;;;;6256589;28;20045;-79
2022/03/04 12:55:49;;;;;;;21.30;12.50;;;15.20;32.30;;;;;;6256462;28;20069;-82
2022/03/04 12:58:52;;;;;;;21.15;11.90;;;15.50;32.20;;;;;;6256285;28;20055;-79
2022/03/04 13:01:54;;;;;;;21.35;11.85;;;16.10;31.20;;;;;;6256960;28;20132;-79
2022/03/04 13:04:58;;;;;;;36.80;14.45;;;16.30;31.50;;;;;;6256183;28;20046;-78
2022/03/04 13:08:00;;;;;;;59.55;21.67;;;16.60;30.50;;;;;;6256073;28;20052;-79
2022/03/04 13:11:12;;;;;;;22.48;12.20;;;16.30;30.40;;;;;;6256715;28;20073;-79
2022/03/04 13:14:15;;;;;;;22.00;12.85;;;15.80;31.20;;;;;;6257976;28;20045;-79
2022/03/04 13:17:17;;;;;;;20.25;12.20;;;15.50;32.30;;;;;;6252003;28;20443;-78
2022/03/04 13:20:20;;;;;;;24.70;12.38;;;15.60;31.70;;;;;;6256459;28;20054;-80
2022/03/04 13:23:22;;;;;;;21.45;11.65;;;16.00;31.30;;;;;;6256226;28;20107;-80
2022/03/04 13:26:24;;;;;;;20.98;11.25;;;16.20;30.40;;;;;;6256680;28;20050;-81
2022/03/04 13:29:31;;;;;;;22.02;11.45;;;16.40;31.30;;;;;;6257170;28;20072;-81
2022/03/04 13:32:42;;;;;;;18.83;10.98;;;16.80;30.10;;;;;;6254910;28;20071;-81
2022/03/04 13:35:55;;;;;;;18.23;10.88;;;17.00;29.90;;;;;;6256657;28;20068;-79
2022/03/04 13:39:07;;;;;;;20.42;11.02;;;17.00;29.60;;;;;;6256272;28;20431;-81
2022/03/04 13:42:19;;;;;;;21.45;11.32;;;16.80;29.80;;;;;;6256983;28;20128;-80
2022/03/04 13:45:30;;;;;;;18.65;10.43;;;17.10;29.30;;;;;;6256103;28;20054;-81
2022/03/04 13:48:32;;;;;;;20.00;10.85;;;16.80;29.50;;;;;;6257631;28;20037;-80
2022/03/04 13:51:36;;;;;;;18.75;10.73;;;16.20;29.80;;;;;;6259078;28;20056;-81
2022/03/04 13:54:49;;;;;;;18.20;9.57;;;15.80;30.40;;;;;;6258941;28;20042;-81
2022/03/04 13:57:51;;;;;;;21.20;11.30;;;15.60;30.40;;;;;;6256776;28;20053;-78
2022/03/04 14:00:54;;;;;;;21.10;11.52;;;15.10;30.90;;;;;;6245702;28;20530;-79
2022/03/04 14:03:57;;;;;;;21.95;11.82;;;14.90;31.40;;;;;;6229663;28;20205;-79
2022/03/04 14:07:00;;;;;;;20.30;11.30;;;15.00;31.80;;;;;;6230141;28;20049;-80
2022/03/04 14:10:10;;;;;;;18.65;10.65;;;15.00;31.80;;;;;;6230417;28;20426;-80
2022/03/04 14:13:13;;;;;;;23.40;11.10;;;15.00;31.60;;;;;;6233145;28;20053;-81
2022/03/04 14:16:17;;;;;;;21.67;11.35;;;15.10;32.20;;;;;;6234639;28;20423;-82
2022/03/04 14:19:19;;;;;;;20.02;9.45;;;15.10;31.60;;;;;;6254065;28;20047;-83
2022/03/04 14:22:22;;;;;;;19.30;11.02;;;14.90;31.50;;;;;;6259091;28;20049;-84
2022/03/04 14:25:24;;;;;;;19.67;10.80;;;14.70;31.90;;;;;;6260970;28;20055;-84
2022/03/04 14:28:26;;;;;;;19.25;9.50;;;14.60;31.90;;;;;;6259776;28;20077;-83
2022/03/04 14:31:28;;;;;;;26.10;10.73;;;14.60;31.70;;;;;;6259555;28;20049;-83
2022/03/04 14:34:30;;;;;;;19.92;10.27;;;14.70;31.50;;;;;;6260931;28;20073;-83
2022/03/04 14:37:34;;;;;;;18.35;9.80;;;14.50;31.60;;;;;;6257677;28;20049;-82
2022/03/04 14:40:37;;;;;;;15.65;9.10;;;14.50;31.40;;;;;;6255712;28;20423;-78
2022/03/04 14:43:38;;;;;;;16.10;8.63;;;14.60;31.40;;;;;;6258715;28;20152;-80
2022/03/04 14:46:40;;;;;;;18.92;8.90;;;14.80;30.60;;;;;;6252551;28;20049;-80
2022/03/04 14:49:42;;;;;;;24.58;10.02;;;14.90;30.80;;;;;;6253664;28;20410;-82
2022/03/04 14:52:49;;;;;;;13.15;8.38;;;14.90;30.70;;;;;;6254046;28;20124;-80
2022/03/04 14:55:51;;;;;;;17.63;9.38;;;14.90;30.60;;;;;;6253757;28;20045;-80
2022/03/04 14:58:52;;;;;;;17.05;9.27;;;15.20;30.10;;;;;;6254761;28;20046;-80
2022/03/04 15:01:54;;;;;;;17.10;7.95;;;15.30;29.50;;;;;;6242906;28;20050;-81
2022/03/04 15:04:56;;;;;;;17.48;8.82;;;15.10;29.70;;;;;;6230144;28;20132;-82
2022/03/04 15:07:59;;;;;;;15.85;8.55;;;14.90;29.80;;;;;;6230964;28;20046;-82
2022/03/04 15:11:01;;;;;;;16.55;8.77;;;14.90;30.00;;;;;;6229398;28;20424;-81
2022/03/04 15:14:02;;;;;;;17.25;8.90;;;14.90;30.40;;;;;;6232157;28;20048;-81
2022/03/04 15:17:05;;;;;;;16.67;8.25;;;15.00;30.40;;;;;;6232592;28;20393;-81
2022/03/04 15:20:07;;;;;;;17.15;9.02;;;14.80;29.90;;;;;;6254387;28;20068;-81
2022/03/04 15:23:11;;;;;;;14.23;8.13;;;14.50;30.00;;;;;;6255059;28;20053;-80
2022/03/04 15:26:12;;;;;;;16.20;8.73;;;14.30;30.40;;;;;;6254861;28;20050;-81
2022/03/04 15:29:14;;;;;;;18.95;9.27;;;14.30;30.70;;;;;;6253490;28;20053;-81
2022/03/04 15:32:18;;;;;;;15.90;7.97;;;14.30;30.50;;;;;;6256007;28;20092;-82
2022/03/04 15:35:19;;;;;;;15.43;8.70;;;14.20;30.50;;;;;;6253893;28;20045;-81
2022/03/04 15:38:23;;;;;;;18.50;8.43;;;13.90;30.80;;;;;;6253977;28;20049;-81
2022/03/04 15:41:25;;;;;;;18.95;9.15;;;13.80;31.00;;;;;;6254573;28;20057;-83
2022/03/04 15:44:29;;;;;;;19.02;9.18;;;13.70;31.10;;;;;;6253603;28;20111;-83